x

Prince Edward Pt (45135) Wave Buoy

9:00am - Tue 2nd Sep 2014 All times are CDT. -5 hours from GMT.

  • Sig Wave height 1.3ft
  • Peak Period 4s
  • Wind
    9mph
  • Sea Temp 68°f
  • Air Temp 70°f
  • Sea Pressure 1010.9mb
  • Prince Edward Pt
  • Prince Edward Pt

More Historic Weather Station data

Upgrade to MSW Pro to gain access to the past 30 days of data for over 8000 Wavebouys and Weather Stations around the globe.

Join Pro

Comparision Forecast

View Surf forecast
   
Tue 09/02 9:00am 1.3ft 4s 9
mph
1010.9mb 68f 70f
8:00am 1.6ft 4s 9 11 mph 1010.8mb 68f 70f
7:00am 1.3ft 3s 13 16 mph 1010.6mb 68f 70f
6:00am 1.3ft 3s 11 13 mph 1010.6mb 68f 70f
5:00am 1.6ft 3s 16 18 mph 1009.6mb 68f 71f
4:00am 1.3ft 3s 16 18 mph 1009.1mb 69f 71f
3:00am 1.6ft 3s 16 18 mph 1008.8mb 69f 72f
2:00am 1.3ft 3s 18 20 mph 1008.6mb 69f 73f
1:00am  -   -  16
mph
- - -
12:00am 1ft 3s 13 16 mph 1009.1mb 69f 71f
Mon 09/01 11:00pm 0.7ft 2s 13
mph
1009.8mb 69f 71f
10:00pm 0.3ft 2s 13
mph
1009.9mb 69f 72f
9:00pm 0.3ft 2s 13
mph
1010.5mb 69f 75f
8:00pm 0.3ft 5s 7 9 mph 1010.5mb 70f 72f
7:00pm 0.3ft 5s 7
mph
1010.5mb 70f 72f
6:00pm 0.3ft 3s 9 11 mph 1010.4mb 70f 73f
5:00pm 0.3ft 3s 7 9 mph 1010.7mb 71f 72f
4:00pm 0.3ft 3s 7 9 mph 1011.1mb 71f 71f
3:00pm 0.3ft 3s 9
mph
1011.7mb 71f 71f
2:00pm 0.3ft 3s 7 9 mph 1012.6mb 71f 71f
1:00pm 0.7ft 3s 4
mph
1013.5mb 71f 71f
12:00pm 0.7ft 3s 4
mph
1014mb 70f 71f
11:00am 0.7ft 3s 4
mph
1014.5mb 69f 69f
10:00am 0.7ft 3s 4
mph
1014.9mb 68f 69f
9:00am 0.7ft 4s 4
mph
1015.1mb 68f 68f
8:00am 0.7ft 4s 2 4 mph 1015.1mb 68f 68f
7:00am 1ft 4s  -  2 mph 1015.2mb 67f 68f
6:00am 1ft 4s 2
mph
1015.5mb 68f 68f
5:00am 1ft 4s 4
mph
1015.1mb 68f 68f
4:00am 1ft 4s 7
mph
1015.1mb 68f 68f
3:00am 1ft 4s 7 9 mph 1014.5mb 68f 68f
2:00am 1ft 4s 7 9 mph 1014.1mb 68f 68f
1:00am 1ft 4s 7
mph
1013.9mb 68f 68f
12:00am 1.3ft 4s 7 9 mph 1013.8mb 68f 69f
Sun 08/31 11:00pm 1.3ft 4s 7 9 mph 1013.7mb 68f 69f
10:00pm 1.6ft 3s 9
mph
1013.6mb 68f 69f
9:00pm 1.6ft 4s 13
mph
1013.3mb 68f 70f
8:00pm 1.6ft 4s 13 16 mph 1013.1mb 68f 71f
7:00pm 1.6ft 4s 13 16 mph 1012.9mb 68f 70f
5:00pm 1.3ft 4s 11 13 mph 1012.3mb 68f 70f
4:00pm 1.6ft 4s 13
mph
1012.1mb 68f 70f
3:00pm 1.6ft 4s 13 16 mph 1012.2mb 68f 70f
2:00pm 2ft 4s 11 13 mph 1012.6mb 68f 70f
1:00pm 2ft 4s 16 18 mph 1012.8mb 68f 71f
12:00pm 2.5ft 4s 16 18 mph 1012.8mb 68f 70f
11:00am 2.5ft 4s 18 20 mph 1013mb 68f 70f
10:00am 2.5ft 4s 18 20 mph 1013.2mb 68f 70f
9:00am 3ft 4s 20 22 mph 1013.3mb 67f 70f
8:00am 3.5ft 4s 20 22 mph 1013.3mb 67f 70f
7:00am 3ft 4s 20 22 mph 1013.4mb 67f 70f
6:00am 3ft 4s 22 27 mph 1012.9mb 67f 70f
5:00am 3.5ft 5s 22 27 mph 1012.6mb 67f 70f
4:00am 3ft 4s 22 25 mph 1012.4mb 68f 71f
3:00am 3.5ft 5s 18 22 mph 1012.8mb 68f 71f
2:00am 3.5ft 5s 20 22 mph 1012.9mb 68f 71f
1:00am 4.5ft 5s 22 27 mph 1012.8mb 68f 71f
12:00am 4ft 5s 22 27 mph 1012.7mb 68f 71f
Sat 08/30 11:00pm 2.5ft 4s 25 27 mph 1012.6mb 68f 71f
10:00pm 2.5ft 4s 20 22 mph 1013.4mb 68f 71f
9:00pm 2ft 3s 18 22 mph 1014mb 68f 72f
8:00pm 1.6ft 4s 20 25 mph 1014.3mb 68f 71f
7:00pm 1.6ft 3s 13 16 mph 1014mb 68f 72f
6:00pm 1.3ft 3s 16 18 mph 1014mb 68f 72f
5:00pm 1.3ft 3s 18 22 mph 1013.6mb 68f 74f
4:00pm 1.3ft 3s 13 16 mph 1014.4mb 68f 72f
3:00pm 1.3ft 3s 11 13 mph 1015.1mb 68f 71f
2:00pm 1.6ft 3s 13 16 mph 1015.9mb 68f 72f
1:00pm 2ft 4s 13 16 mph 1016.9mb 68f 71f
12:00pm 2.5ft 4s 11 16 mph 1017.6mb 68f 69f
11:00am 3ft 4s 13 18 mph 1018.1mb 67f 69f
10:00am 3.5ft 5s 16 18 mph 1018.5mb 67f 68f
9:00am 3.5ft 5s 20 22 mph 1018.3mb 67f 67f
8:00am 3.5ft 4s 22 27 mph 1018.6mb 67f 66f
7:00am 3.5ft 4s 22 27 mph 1018.5mb 67f 66f
6:00am 3.5ft 4s 22 27 mph 1018.7mb 67f 66f
5:00am 3.5ft 4s 20 25 mph 1018.6mb 68f 66f
4:00am 3ft 4s 22 25 mph 1018.8mb 68f 67f
3:00am 2.5ft 4s 20 25 mph 1018.8mb 68f 67f
2:00am 2ft 3s 20 22 mph 1019.2mb 68f 67f
1:00am 1.3ft 3s 18 20 mph 1019.7mb 68f 68f
12:00am 1ft 3s 16 20 mph 1019.9mb 68f 69f
Fri 08/29 11:00pm 0.7ft 2s 13 16 mph 1020mb 68f 68f
10:00pm 0.7ft 2s 11
mph
1020.4mb 68f 68f
9:00pm 0.7ft 2s 13
mph
1020.3mb 69f 68f
8:00pm 0.3ft 4s 11 13 mph 1020.7mb 69f 68f
7:00pm 0.3ft 3s 9
mph
1020.5mb 69f 68f
6:00pm 0.3ft 3s 7 9 mph 1020.6mb 70f 68f
5:00pm 0.3ft 3s 2 4 mph 1021.1mb 70f 67f
4:00pm 0.3ft 4s 2 4 mph 1021.3mb 71f 67f